Time;durP1;ratioP1;P1;durP2;ratioP2;P2;SDS_P1;SDS_P2;PMS_P1;PMS_P2;Temp;Humidity;BMP_temperature;BMP_pressure;BME280_temperature;BME280_humidity;BME280_pressure;Samples;Min_cycle;Max_cycle;Signal;HPM_P1;HPM_P2
2021/11/21 00:00:41;;;;;;;31.80;17.98;;;;;;;1.28;89.91;97964.64;1694341;83;21048;-75
2021/11/21 00:03:09;;;;;;;34.30;17.80;;;;;;;1.23;90.41;97965.92;1686327;83;20997;-75
2021/11/21 00:05:40;;;;;;;32.05;17.40;;;;;;;1.23;89.97;97957.20;1687286;84;21012;-75
2021/11/21 00:08:06;;;;;;;32.88;16.95;;;;;;;1.21;90.49;97955.91;1686532;84;21082;-75
2021/11/21 00:10:34;;;;;;;31.30;16.50;;;;;;;1.23;90.32;97951.56;1676357;84;21021;-75
2021/11/21 00:13:02;;;;;;;27.22;14.98;;;;;;;1.24;90.44;97945.92;1680067;84;21033;-75
2021/11/21 00:15:29;;;;;;;26.42;13.32;;;;;;;1.25;90.17;97943.75;1675790;85;21025;-76
2021/11/21 00:17:56;;;;;;;21.95;13.08;;;;;;;1.27;90.67;97943.31;1677905;84;21017;-76
2021/11/21 00:20:23;;;;;;;23.83;13.28;;;;;;;1.30;90.37;97944.20;1674630;83;21001;-75
2021/11/21 00:22:51;;;;;;;23.25;13.50;;;;;;;1.34;90.41;97938.59;1667057;84;21045;-76
2021/11/21 00:25:20;;;;;;;24.25;13.72;;;;;;;1.40;90.35;97950.37;1648858;84;21045;-75
2021/11/21 00:27:46;;;;;;;22.85;13.78;;;;;;;1.43;90.16;97950.41;1662637;85;21052;-76
2021/11/21 00:30:13;;;;;;;22.70;12.58;;;;;;;1.44;90.35;97954.76;1662300;86;21108;-76
2021/11/21 00:32:39;;;;;;;22.60;13.00;;;;;;;1.47;90.04;97954.32;1673410;85;21057;-76
2021/11/21 00:35:07;;;;;;;21.27;12.33;;;;;;;1.50;89.87;97952.59;1663854;84;21101;-76
2021/11/21 00:37:33;;;;;;;19.60;11.73;;;;;;;1.50;89.87;97945.21;1667044;83;21136;-75
2021/11/21 00:40:00;;;;;;;21.17;11.50;;;;;;;1.55;89.62;97941.77;1676988;83;21041;-75
2021/11/21 00:42:26;;;;;;;25.52;13.60;;;;;;;1.60;89.39;97936.56;1676395;85;21002;-75
2021/11/21 00:44:53;;;;;;;23.45;14.33;;;;;;;1.56;89.09;97940.02;1676545;85;21060;-75
2021/11/21 00:47:20;;;;;;;23.55;13.68;;;;;;;1.53;88.70;97943.94;1686438;84;21001;-75
2021/11/21 00:49:46;;;;;;;28.70;15.93;;;;;;;1.48;88.57;97934.75;1690186;85;21118;-76
2021/11/21 00:52:13;;;;;;;24.80;14.83;;;;;;;1.42;88.58;97931.66;1690355;85;21021;-76
2021/11/21 00:57:08;;;;;;;28.90;15.30;;;;;;;1.31;88.79;97935.53;1676241;86;21025;-76
2021/11/21 00:59:35;;;;;;;24.77;15.13;;;;;;;1.29;89.25;97936.38;1686010;83;21122;-76
2021/11/21 01:02:06;;;;;;;25.77;14.28;;;;;;;1.28;89.00;97926.78;1676781;84;22023;-79
2021/11/21 01:04:30;;;;;;;28.15;15.28;;;;;;;1.27;88.97;97924.62;1654337;85;21065;-79
2021/11/21 01:06:56;;;;;;;25.43;14.65;;;;;;;1.25;88.80;97926.33;1660228;84;21017;-79
2021/11/21 01:09:24;;;;;;;29.40;14.38;;;;;;;1.25;88.87;97920.25;1685769;85;20965;-79
2021/11/21 01:11:51;;;;;;;24.95;13.98;;;;;;;1.26;88.74;97921.99;1667041;84;20997;-79
2021/11/21 01:14:19;;;;;;;23.50;13.30;;;;;;;1.27;88.64;97908.95;1669400;85;21129;-79
2021/11/21 01:16:46;;;;;;;22.82;12.80;;;;;;;1.28;89.24;97917.64;1669250;85;21050;-79
2021/11/21 01:19:12;;;;;;;25.23;13.85;;;;;;;1.30;88.68;97914.63;1669372;85;21070;-79
2021/11/21 01:21:39;;;;;;;24.35;13.18;;;;;;;1.28;88.86;97912.42;1681498;85;20982;-79
2021/11/21 01:24:06;;;;;;;22.98;12.98;;;;;;;1.28;88.96;97918.95;1669444;86;21058;-79
2021/11/21 01:26:34;;;;;;;17.90;11.15;;;;;;;1.29;89.21;97909.83;1672053;85;21391;-78
2021/11/21 01:29:01;;;;;;;22.37;11.95;;;;;;;1.30;89.21;97906.80;1681555;84;21069;-79
2021/11/21 01:31:29;;;;;;;20.82;12.20;;;;;;;1.29;89.18;97900.69;1673419;84;21049;-79
2021/11/21 01:33:56;;;;;;;22.30;12.47;;;;;;;1.28;89.27;97901.55;1657482;83;21063;-79
2021/11/21 01:36:24;;;;;;;22.85;12.28;;;;;;;1.21;88.70;97898.48;1648586;86;21046;-78
2021/11/21 01:38:51;;;;;;;26.57;13.08;;;;;;;1.14;88.94;97889.73;1648351;87;21054;-79
2021/11/21 01:41:19;;;;;;;21.10;11.73;;;;;;;1.12;89.12;97895.36;1670828;85;20982;-79
2021/11/21 01:43:46;;;;;;;24.65;12.50;;;;;;;1.08;88.81;97895.34;1680233;84;20962;-78
2021/11/21 01:46:15;;;;;;;22.05;12.25;;;;;;;1.02;88.93;97890.94;1642081;87;21114;-78
2021/11/21 01:48:42;;;;;;;21.85;12.15;;;;;;;0.99;88.81;97884.41;1642226;87;21026;-78
2021/11/21 01:51:11;;;;;;;25.45;13.05;;;;;;;0.92;88.78;97879.58;1663221;85;21451;-78
2021/11/21 01:53:39;;;;;;;20.25;11.68;;;;;;;0.88;88.59;97886.94;1675814;85;21052;-78
2021/11/21 01:56:06;;;;;;;23.47;12.63;;;;;;;0.84;88.48;97886.05;1669367;85;21490;-78
2021/11/21 01:58:34;;;;;;;22.40;11.70;;;;;;;0.79;88.79;97887.30;1667765;85;21054;-78
2021/11/21 02:01:01;;;;;;;19.80;12.65;;;;;;;0.78;88.66;97885.98;1678012;84;21443;-79
2021/11/21 02:03:29;;;;;;;20.75;11.93;;;;;;;0.75;88.83;97882.91;1682516;84;21018;-79
2021/11/21 02:05:55;;;;;;;23.38;11.18;;;;;;;0.71;89.22;97886.80;1685110;84;20986;-78
2021/11/21 02:08:22;;;;;;;20.25;11.05;;;;;;;0.67;88.81;97879.81;1684603;85;21017;-78
2021/11/21 02:10:48;;;;;;;17.05;10.48;;;;;;;0.65;88.81;97873.27;1687497;84;21387;-78
2021/11/21 02:13:15;;;;;;;20.23;10.60;;;;;;;0.64;89.10;97864.59;1642113;87;21054;-78
2021/11/21 02:15:45;;;;;;;17.30;10.58;;;;;;;0.59;89.30;97866.70;1642784;86;20998;-77
2021/11/21 02:18:13;;;;;;;18.15;10.08;;;;;;;0.58;89.06;97852.78;1674196;85;20989;-77
2021/11/21 02:20:44;;;;;;;22.15;10.58;;;;;;;0.55;89.21;97852.78;1682989;84;21013;-77
2021/11/21 02:23:11;;;;;;;22.05;11.55;;;;;;;0.52;88.87;97850.13;1685251;84;21021;-77
2021/11/21 02:25:38;;;;;;;18.77;10.40;;;;;;;0.52;88.82;97838.39;1678315;84;21084;-77
2021/11/21 02:28:07;;;;;;;16.40;9.95;;;;;;;0.48;88.85;97843.14;1664053;86;21037;-77
2021/11/21 02:30:35;;;;;;;18.87;10.23;;;;;;;0.46;88.83;97831.38;1676360;86;21020;-77
2021/11/21 02:33:02;;;;;;;20.60;10.28;;;;;;;0.43;88.82;97830.49;1671361;85;20967;-78
2021/11/21 02:35:31;;;;;;;18.70;9.65;;;;;;;0.42;88.98;97831.36;1669244;86;21038;-77
2021/11/21 02:37:58;;;;;;;17.95;10.23;;;;;;;0.42;88.91;97833.55;1642976;84;21038;-77
2021/11/21 02:40:25;;;;;;;15.15;9.08;;;;;;;0.41;88.99;97834.39;1646597;85;21045;-77
2021/11/21 02:42:52;;;;;;;17.07;9.63;;;;;;;0.40;88.86;97841.77;1672001;85;21435;-77
2021/11/21 02:45:21;;;;;;;16.30;9.73;;;;;;;0.34;89.01;97833.45;1671964;86;21006;-77
2021/11/21 02:47:48;;;;;;;18.70;10.68;;;;;;;0.34;89.41;97832.16;1691142;84;21024;-77
2021/11/21 02:50:24;;;;;;;16.95;10.03;;;;;;;0.36;89.50;97834.36;1699263;84;21379;-76
2021/11/21 02:52:53;;;;;;;17.00;8.35;;;;;;;0.37;89.59;97828.28;1686858;83;21057;-76
2021/11/21 02:55:25;;;;;;;17.10;9.25;;;;;;;0.33;89.37;97826.95;1683727;84;21407;-77
2021/11/21 02:57:52;;;;;;;18.90;10.75;;;;;;;0.26;89.56;97824.72;1668969;85;21022;-77
2021/11/21 03:00:18;;;;;;;18.27;11.28;;;;;;;0.24;89.83;97829.91;1667667;86;21025;-77
2021/11/21 03:02:46;;;;;;;18.73;10.88;;;;;;;0.20;89.94;97814.25;1669558;85;21493;-77
2021/11/21 03:05:14;;;;;;;18.25;10.48;;;;;;;0.15;89.46;97826.33;1683581;84;21451;-77
2021/11/21 03:07:43;;;;;;;17.70;9.53;;;;;;;0.09;89.76;97825.86;1677476;85;21403;-77
2021/11/21 03:10:10;;;;;;;16.65;9.03;;;;;;;0.06;89.35;97828.01;1671475;86;21042;-76
2021/11/21 03:12:38;;;;;;;16.32;9.15;;;;;;;0.02;89.20;97821.02;1676660;86;20978;-77
2021/11/21 03:15:05;;;;;;;15.23;9.58;;;;;;;-0.02;88.99;97824.45;1674048;85;21073;-78
2021/11/21 03:17:33;;;;;;;17.55;9.55;;;;;;;-0.06;89.13;97820.94;1686329;84;21024;-78
2021/11/21 03:19:59;;;;;;;17.00;9.25;;;;;;;-0.06;89.00;97818.34;1636217;85;21600;-78
2021/11/21 03:22:27;;;;;;;16.00;9.43;;;;;;;-0.10;88.89;97821.77;1644385;86;21018;-78
2021/11/21 03:24:53;;;;;;;17.75;10.10;;;;;;;-0.12;89.02;97813.49;1676985;85;21037;-78
2021/11/21 03:27:20;;;;;;;16.07;9.75;;;;;;;-0.15;89.08;97812.61;1680932;85;21002;-78
2021/11/21 03:29:47;;;;;;;16.35;9.40;;;;;;;-0.20;89.13;97817.32;1664074;85;20995;-78
2021/11/21 03:32:14;;;;;;;15.63;8.88;;;;;;;-0.25;88.90;97814.65;1670906;85;21018;-78
2021/11/21 03:34:41;;;;;;;15.68;9.35;;;;;;;-0.29;88.87;97804.63;1665525;85;21066;-78
2021/11/21 03:37:12;;;;;;;17.07;9.83;;;;;;;-0.32;88.99;97802.44;1675457;84;20963;-78
2021/11/21 03:39:39;;;;;;;17.25;9.20;;;;;;;-0.37;89.26;97795.89;1640277;86;21012;-78
2021/11/21 03:42:05;;;;;;;14.95;9.23;;;;;;;-0.37;89.10;97795.00;1689959;84;21002;-78
2021/11/21 03:44:33;;;;;;;20.43;10.38;;;;;;;-0.37;89.47;97796.30;1684284;85;21018;-77
2021/11/21 03:46:59;;;;;;;20.02;10.35;;;;;;;-0.38;88.93;97795.87;1679267;84;21100;-77
2021/11/21 03:49:26;;;;;;;19.25;11.20;;;;;;;-0.45;89.63;97795.77;1669480;86;21033;-77
2021/11/21 03:51:52;;;;;;;18.30;11.10;;;;;;;-0.48;89.75;97797.48;1669268;85;21017;-77
2021/11/21 03:54:19;;;;;;;20.82;10.60;;;;;;;-0.50;89.21;97792.25;1671663;85;21522;-78
2021/11/21 03:56:46;;;;;;;17.37;10.28;;;;;;;-0.52;89.47;97790.48;1681546;84;21006;-78
2021/11/21 03:59:12;;;;;;;18.60;10.75;;;;;;;-0.55;89.18;97790.91;1677786;85;21030;-78
2021/11/21 04:01:41;;;;;;;18.50;10.40;;;;;;;-0.55;90.14;97791.32;1669340;85;21045;-78
2021/11/21 04:04:10;;;;;;;17.67;9.70;;;;;;;-0.52;90.03;97790.06;1669630;85;21415;-78
2021/11/21 04:06:36;;;;;;;20.85;11.00;;;;;;;-0.47;89.76;97793.59;1673020;85;21479;-77
2021/11/21 04:09:02;;;;;;;17.55;10.95;;;;;;;-0.51;89.69;97784.00;1683445;85;21034;-77
2021/11/21 04:11:30;;;;;;;20.20;10.55;;;;;;;-0.45;90.22;97778.00;1683646;85;21046;-77
2021/11/21 04:13:58;;;;;;;19.57;10.30;;;;;;;-0.39;90.33;97771.55;1683425;84;21042;-77
2021/11/21 04:16:26;;;;;;;18.60;10.72;;;;;;;-0.40;90.18;97776.31;1681462;84;21092;-77
2021/11/21 04:18:53;;;;;;;16.70;10.40;;;;;;;-0.42;90.24;97784.10;1669149;85;21024;-78
2021/11/21 04:21:21;;;;;;;20.45;10.88;;;;;;;-0.45;90.15;97778.00;1669555;85;21026;-78
2021/11/21 04:23:48;;;;;;;15.70;10.23;;;;;;;-0.49;89.91;97765.80;1672526;85;20975;-78
2021/11/21 04:26:17;;;;;;;18.32;10.55;;;;;;;-0.54;89.87;97762.71;1670139;85;21104;-78
2021/11/21 04:28:44;;;;;;;20.32;11.53;;;;;;;-0.53;89.89;97763.59;1683496;85;22198;-78
2021/11/21 04:31:11;;;;;;;19.35;10.50;;;;;;;-0.53;89.73;97758.39;1683545;84;21002;-79
2021/11/21 04:33:38;;;;;;;17.57;10.23;;;;;;;-0.59;89.41;97759.59;1683334;84;21387;-78
2021/11/21 04:36:05;;;;;;;17.20;10.72;;;;;;;-0.62;89.61;97759.59;1683233;85;21502;-78
2021/11/21 04:38:32;;;;;;;18.25;10.85;;;;;;;-0.62;89.50;97747.42;1669463;84;21013;-78
2021/11/21 04:41:00;;;;;;;17.62;10.95;;;;;;;-0.66;89.54;97757.38;1669271;85;21042;-78
2021/11/21 04:43:27;;;;;;;19.12;10.70;;;;;;;-0.71;89.40;97759.06;1670526;85;20998;-78
2021/11/21 04:45:55;;;;;;;17.32;9.63;;;;;;;-0.76;89.30;97752.48;1669698;85;21495;-78
2021/11/21 04:48:26;;;;;;;16.95;10.13;;;;;;;-0.83;89.33;97751.98;1672744;85;21034;-78
2021/11/21 04:50:53;;;;;;;19.23;10.60;;;;;;;-0.84;89.51;97756.71;1678513;85;21034;-78
2021/11/21 04:53:20;;;;;;;15.72;10.18;;;;;;;-0.85;89.68;97754.97;1668962;85;21053;-78
2021/11/21 04:55:47;;;;;;;19.77;9.88;;;;;;;-0.85;89.82;97750.66;1676374;85;20986;-79
2021/11/21 04:58:14;;;;;;;18.92;9.75;;;;;;;-0.85;89.54;97744.15;1678041;85;21542;-78
2021/11/21 05:00:42;;;;;;;21.15;10.35;;;;;;;-0.87;89.61;97745.84;1678243;84;21010;-78
2021/11/21 05:03:09;;;;;;;17.23;10.30;;;;;;;-0.88;89.83;97744.55;1671293;85;20979;-78
2021/11/21 05:05:36;;;;;;;18.92;9.78;;;;;;;-0.88;90.14;97746.70;1665604;85;21412;-79
2021/11/21 05:08:04;;;;;;;17.02;9.70;;;;;;;-0.90;90.13;97743.22;1669294;85;20987;-79
2021/11/21 05:10:31;;;;;;;21.68;10.48;;;;;;;-0.88;90.03;97736.30;1669175;86;21049;-79
2021/11/21 05:12:57;;;;;;;17.20;9.75;;;;;;;-0.85;90.09;97740.66;1670141;85;21022;-78
2021/11/21 05:15:25;;;;;;;19.25;10.60;;;;;;;-0.86;90.16;97745.42;1667364;85;21354;-78
2021/11/21 05:17:53;;;;;;;20.70;10.82;;;;;;;-0.87;90.09;97731.53;1669122;86;21062;-76
2021/11/21 05:20:21;;;;;;;19.12;10.48;;;;;;;-0.89;89.87;97738.88;1669198;86;21550;-77
2021/11/21 05:22:49;;;;;;;21.17;11.88;;;;;;;-0.95;89.87;97734.48;1669069;85;21028;-77
2021/11/21 05:25:16;;;;;;;21.33;11.22;;;;;;;-0.95;89.74;97737.95;1666258;85;21006;-77
2021/11/21 05:27:46;;;;;;;20.92;10.48;;;;;;;-0.98;90.09;97731.84;1668624;85;20970;-77
2021/11/21 05:30:13;;;;;;;19.25;10.43;;;;;;;-0.98;90.39;97723.63;1669027;85;21440;-76
2021/11/21 05:32:41;;;;;;;22.32;11.63;;;;;;;-1.00;90.08;97722.71;1669319;85;21100;-76
2021/11/21 05:35:09;;;;;;;17.98;11.10;;;;;;;-0.99;89.84;97723.15;1669236;86;21042;-76
2021/11/21 05:37:36;;;;;;;18.60;10.35;;;;;;;-0.99;89.82;97727.50;1664866;85;21542;-76
2021/11/21 05:40:07;;;;;;;24.55;10.35;;;;;;;-1.06;89.48;97725.24;1670608;85;21061;-76
2021/11/21 05:42:38;;;;;;;19.17;10.35;;;;;;;-1.09;90.30;97718.28;1667667;85;21085;-76
2021/11/21 05:45:08;;;;;;;22.55;11.53;;;;;;;-1.05;89.85;97719.63;1676204;85;21121;-76
2021/11/21 05:47:35;;;;;;;18.20;10.23;;;;;;;-1.05;89.75;97722.23;1675616;85;21069;-76
2021/11/21 05:50:06;;;;;;;22.20;11.60;;;;;;;-1.05;89.65;97711.83;1675952;85;21002;-76
2021/11/21 05:52:33;;;;;;;20.68;10.88;;;;;;;-1.07;89.87;97706.59;1686367;85;21439;-76
2021/11/21 05:54:59;;;;;;;17.37;11.00;;;;;;;-1.07;90.27;97703.55;1672098;85;21077;-76
2021/11/21 05:57:26;;;;;;;19.57;10.78;;;;;;;-1.00;90.54;97707.55;1669162;86;20994;-76
2021/11/21 05:59:52;;;;;;;15.80;10.03;;;;;;;-0.96;90.60;97704.98;1669288;85;21085;-76
2021/11/21 06:02:20;;;;;;;17.57;10.10;;;;;;;-0.92;90.65;97700.69;1674980;84;21045;-76
2021/11/21 06:04:47;;;;;;;17.67;10.13;;;;;;;-0.90;90.51;97703.31;1675076;85;21034;-76
2021/11/21 06:07:13;;;;;;;19.42;10.23;;;;;;;-0.92;90.71;97701.13;1684249;84;21045;-76
2021/11/21 06:09:40;;;;;;;22.93;11.25;;;;;;;-0.90;90.71;97702.01;1683374;85;21117;-76
2021/11/21 06:12:08;;;;;;;18.77;11.00;;;;;;;-0.89;90.77;97702.45;1684003;85;21072;-76
2021/11/21 06:14:35;;;;;;;24.18;12.55;;;;;;;-0.89;90.70;97698.55;1683960;84;21006;-76
2021/11/21 06:17:01;;;;;;;20.30;11.15;;;;;;;-0.88;90.71;97691.21;1684818;84;21018;-76
2021/11/21 06:19:28;;;;;;;21.45;11.75;;;;;;;-0.83;90.54;97701.24;1688082;85;21029;-76
2021/11/21 06:21:54;;;;;;;25.43;12.05;;;;;;;-0.86;90.22;97695.98;1683586;85;21465;-76
2021/11/21 06:24:21;;;;;;;19.77;11.33;;;;;;;-0.88;90.30;97686.01;1675996;84;20983;-76
2021/11/21 06:26:48;;;;;;;21.52;10.70;;;;;;;-0.86;90.22;97685.59;1668529;85;21049;-76
2021/11/21 06:29:17;;;;;;;20.50;11.90;;;;;;;-0.87;90.31;97685.14;1676265;85;21054;-76
2021/11/21 06:31:44;;;;;;;20.82;11.93;;;;;;;-0.88;90.00;97688.16;1675508;85;21024;-76
2021/11/21 06:34:14;;;;;;;24.77;13.35;;;;;;;-0.86;89.99;97685.59;1683600;84;21490;-76
2021/11/21 06:36:44;;;;;;;20.80;11.33;;;;;;;-0.87;90.35;97686.00;1678945;84;21005;-76
2021/11/21 06:39:13;;;;;;;23.30;12.80;;;;;;;-0.85;90.20;97671.71;1682455;84;21025;-76
2021/11/21 06:41:39;;;;;;;22.17;12.93;;;;;;;-0.83;90.13;97681.28;1684534;85;21566;-76
2021/11/21 06:44:09;;;;;;;22.22;12.40;;;;;;;-0.81;90.12;97676.09;1689020;84;21400;-76
2021/11/21 06:46:37;;;;;;;21.65;12.28;;;;;;;-0.79;90.02;97665.27;1677657;85;21445;-76
2021/11/21 06:49:03;;;;;;;21.25;12.45;;;;;;;-0.74;90.01;97669.23;1673307;85;20994;-76
2021/11/21 06:51:31;;;;;;;25.97;13.85;;;;;;;-0.72;90.26;97672.30;1642809;87;21069;-77
2021/11/21 06:53:57;;;;;;;22.07;11.88;;;;;;;-0.66;90.27;97672.80;1642500;87;21061;-76
2021/11/21 06:56:28;;;;;;;23.57;13.35;;;;;;;-0.61;90.00;97667.63;1642582;87;21029;-76
2021/11/21 06:58:52;;;;;;;25.90;13.70;;;;;;;-0.61;90.00;97665.91;1686152;84;21013;-76
2021/11/21 07:01:19;;;;;;;23.02;12.78;;;;;;;-0.57;90.11;97671.59;1672653;84;21038;-76
2021/11/21 07:03:45;;;;;;;24.40;13.58;;;;;;;-0.51;90.13;97666.00;1669718;85;21420;-76
2021/11/21 07:06:41;;;;;;;20.20;12.58;;;;;;;-0.48;89.96;97662.98;1673205;85;21026;-76
2021/11/21 07:09:14;;;;;;;21.65;13.03;;;;;;;-0.42;90.49;97660.84;1675738;85;21415;-76
2021/11/21 07:11:44;;;;;;;25.48;12.78;;;;;;;-0.34;90.11;97655.28;1682304;85;21061;-76
2021/11/21 07:14:12;;;;;;;24.90;13.83;;;;;;;-0.29;90.16;97658.80;1684223;85;20993;-76
2021/11/21 07:16:48;;;;;;;27.35;15.10;;;;;;;-0.23;90.08;97655.38;1681393;85;21038;-76
2021/11/21 07:19:16;;;;;;;22.13;13.13;;;;;;;-0.19;89.96;97658.45;1669618;85;21065;-76
2021/11/21 07:21:50;;;;;;;24.12;13.32;;;;;;;-0.10;90.68;97660.25;1685058;83;21026;-76
2021/11/21 07:24:17;;;;;;;24.85;15.13;;;;;;;0.00;90.38;97650.79;1676231;85;21041;-76
2021/11/21 07:26:45;;;;;;;25.57;14.00;;;;;;;0.07;90.17;97655.58;1687323;84;21005;-76
2021/11/21 07:29:11;;;;;;;24.47;13.88;;;;;;;0.12;90.88;97644.34;1684184;85;21022;-76
2021/11/21 07:31:38;;;;;;;24.18;13.80;;;;;;;0.22;90.56;97641.38;1689272;85;21391;-77
2021/11/21 07:34:07;;;;;;;25.10;13.38;;;;;;;0.31;90.39;97641.85;1668491;84;21041;-77
2021/11/21 07:36:35;;;;;;;22.10;13.55;;;;;;;0.40;90.33;97634.50;1677374;85;21474;-77
2021/11/21 07:39:02;;;;;;;26.23;13.88;;;;;;;0.47;90.37;97642.81;1675585;86;21025;-77
2021/11/21 07:41:30;;;;;;;22.25;13.88;;;;;;;0.57;90.24;97648.93;1669607;86;21046;-77
2021/11/21 07:43:57;;;;;;;24.67;14.35;;;;;;;0.64;90.36;97640.28;1669625;86;21054;-77
2021/11/21 07:46:25;;;;;;;27.20;15.20;;;;;;;0.75;90.41;97647.28;1652187;85;21043;-77
2021/11/21 07:48:53;;;;;;;25.82;13.35;;;;;;;0.86;90.14;97645.58;1669031;84;21463;-77
2021/11/21 07:51:20;;;;;;;25.97;13.83;;;;;;;0.97;90.09;97644.73;1669581;86;21491;-76
2021/11/21 07:53:47;;;;;;;23.27;14.00;;;;;;;1.08;90.37;97646.08;1669517;85;21483;-77
2021/11/21 07:56:13;;;;;;;20.92;13.45;;;;;;;1.20;90.14;97647.86;1669511;85;21002;-77
2021/11/21 07:58:40;;;;;;;21.07;13.62;;;;;;;1.32;90.19;97641.34;1652855;85;21085;-76
2021/11/21 08:01:06;;;;;;;25.55;14.05;;;;;;;1.40;90.02;97640.92;1650157;85;21014;-77
2021/11/21 08:03:33;;;;;;;23.15;15.08;;;;;;;1.50;89.99;97636.56;1673361;86;21095;-76
2021/11/21 08:05:59;;;;;;;26.02;14.63;;;;;;;1.57;89.89;97639.64;1686497;85;21105;-77
2021/11/21 08:08:26;;;;;;;24.27;14.40;;;;;;;1.67;89.92;97643.56;1683116;85;20990;-77
2021/11/21 08:10:53;;;;;;;26.05;14.47;;;;;;;1.76;89.87;97642.69;1669632;85;21022;-77
2021/11/21 08:13:21;;;;;;;23.27;13.53;;;;;;;1.86;89.85;97643.57;1669170;85;21045;-77
2021/11/21 08:15:48;;;;;;;25.50;14.30;;;;;;;1.95;89.75;97647.48;1691040;84;20997;-76
2021/11/21 08:18:15;;;;;;;21.23;13.50;;;;;;;2.02;89.68;97640.48;1669295;85;21521;-77
2021/11/21 08:20:41;;;;;;;21.65;12.73;;;;;;;2.11;89.72;97643.98;1683726;85;20975;-76
2021/11/21 08:23:09;;;;;;;28.92;16.60;;;;;;;2.20;89.73;97639.62;1683566;85;21129;-77
2021/11/21 08:25:36;;;;;;;21.97;13.55;;;;;;;2.29;89.63;97646.56;1682125;85;21082;-77
2021/11/21 08:28:04;;;;;;;21.87;13.20;;;;;;;2.38;89.60;97646.55;1673958;85;20990;-77
2021/11/21 08:30:35;;;;;;;22.30;11.93;;;;;;;2.47;89.57;97639.98;1675973;85;21003;-77
2021/11/21 08:33:00;;;;;;;20.48;11.88;;;;;;;2.57;89.53;97638.66;1672877;85;21486;-77
2021/11/21 08:35:28;;;;;;;20.52;12.70;;;;;;;2.66;89.47;97636.44;1683171;84;21043;-77
2021/11/21 08:37:55;;;;;;;18.48;12.35;;;;;;;2.74;89.41;97622.89;1696250;84;21390;-77
2021/11/21 08:40:23;;;;;;;23.15;13.55;;;;;;;2.83;89.31;97628.06;1670998;84;21018;-77
2021/11/21 08:42:50;;;;;;;23.55;15.05;;;;;;;2.92;89.54;97631.09;1669683;85;21065;-77
2021/11/21 08:45:20;;;;;;;27.48;17.12;;;;;;;3.02;89.49;97627.55;1668947;85;21038;-77
2021/11/21 08:47:47;;;;;;;29.07;16.02;;;;;;;3.12;89.16;97627.05;1673571;85;21028;-77
2021/11/21 08:50:15;;;;;;;25.95;15.98;;;;;;;3.23;89.20;97619.56;1698089;83;21485;-77
2021/11/21 08:52:42;;;;;;;23.95;15.43;;;;;;;3.32;89.02;97622.59;1689116;84;21026;-77
2021/11/21 08:55:09;;;;;;;29.65;15.93;;;;;;;3.40;88.91;97615.52;1679932;85;20993;-78
2021/11/21 08:57:36;;;;;;;27.60;15.88;;;;;;;3.50;88.85;97618.96;1682539;84;20998;-78
2021/11/21 09:00:07;;;;;;;25.55;15.23;;;;;;;3.61;88.89;97611.88;1671832;85;21514;-79
2021/11/21 09:02:38;;;;;;;25.10;15.65;;;;;;;3.67;88.69;97606.61;1675720;84;21113;-78
2021/11/21 09:05:07;;;;;;;27.45;15.80;;;;;;;3.76;88.62;97602.16;1668466;85;21542;-78
2021/11/21 09:07:41;;;;;;;22.05;13.55;;;;;;;3.85;88.52;97596.84;1669364;85;21084;-78
2021/11/21 09:10:13;;;;;;;21.65;12.85;;;;;;;3.97;88.68;97602.41;1670997;84;21017;-79
2021/11/21 09:12:42;;;;;;;;;;;;;;;4.06;88.31;97600.13;1677332;85;21050;-78
2021/11/21 09:15:17;;;;;;;26.50;15.50;;;;;;;4.14;88.13;97594.81;1682290;85;20167;-78
2021/11/21 09:17:48;;;;;;;28.50;14.95;;;;;;;4.23;88.20;97587.73;1684299;85;21041;-79
2021/11/21 09:20:16;;;;;;;30.02;16.73;;;;;;;4.33;88.20;97592.42;1683588;85;21002;-79
2021/11/21 09:22:44;;;;;;;23.80;16.25;;;;;;;4.43;87.69;97584.44;1650559;84;20974;-79
2021/11/21 09:25:11;;;;;;;33.50;18.62;;;;;;;4.53;86.58;97582.13;1641312;87;21511;-79
2021/11/21 09:27:38;;;;;;;36.83;19.10;;;;;;;4.66;87.22;97582.00;1640995;87;21460;-79
2021/11/21 09:30:09;;;;;;;30.30;19.07;;;;;;;4.74;87.30;97572.28;1641023;87;21112;-79
2021/11/21 09:32:39;;;;;;;26.35;16.52;;;;;;;4.83;86.70;97565.59;1647333;86;21566;-78
2021/11/21 09:35:08;;;;;;;25.92;16.15;;;;;;;4.93;86.44;97562.39;1674999;83;21030;-79
2021/11/21 09:37:37;;;;;;;32.40;17.87;;;;;;;5.04;86.64;97560.93;1679082;85;21033;-78
2021/11/21 09:40:06;;;;;;;28.23;17.50;;;;;;;5.17;85.71;97556.80;1669463;85;21045;-79
2021/11/21 09:42:34;;;;;;;26.93;17.52;;;;;;;5.31;85.93;97563.17;1668844;85;21010;-78
2021/11/21 09:45:03;;;;;;;29.15;17.23;;;;;;;5.44;85.20;97569.10;1673408;84;21106;-78
2021/11/21 09:47:29;;;;;;;24.18;16.20;;;;;;;5.54;84.98;97562.37;1671739;84;21415;-79
2021/11/21 09:50:04;;;;;;;27.52;15.15;;;;;;;5.67;85.32;97560.83;1679792;84;21008;-78
2021/11/21 09:52:31;;;;;;;24.35;15.05;;;;;;;5.85;85.56;97558.33;1673586;84;21006;-77
2021/11/21 09:54:57;;;;;;;27.10;14.15;;;;;;;6.00;83.79;97559.83;1672111;84;21013;-80
2021/11/21 09:57:24;;;;;;;24.02;14.63;;;;;;;6.11;84.35;97548.27;1655756;84;20970;-80
2021/11/21 10:00:02;;;;;;;25.30;15.08;;;;;;;6.27;84.32;97548.38;1668130;85;21060;-80
2021/11/21 10:02:36;;;;;;;24.72;14.15;;;;;;;6.43;83.16;97540.18;1670867;84;21072;-80
2021/11/21 10:05:24;;;;;;;24.63;15.08;;;;;;;6.63;83.50;97543.73;1679435;83;20996;-80
2021/11/21 10:08:08;;;;;;;22.37;14.63;;;;;;;6.79;82.76;97535.50;1681182;83;21069;-80
2021/11/21 10:10:49;;;;;;;21.52;14.23;;;;;;;6.96;82.62;97533.81;1666872;83;21098;-79
2021/11/21 10:13:50;;;;;;;22.67;13.72;;;;;;;7.12;82.09;97532.58;1678355;85;21423;-79
2021/11/21 10:16:28;;;;;;;22.73;15.05;;;;;;;7.30;81.77;97529.55;1695303;84;21011;-80
2021/11/21 10:19:08;;;;;;;20.95;13.25;;;;;;;7.50;81.57;97525.09;1701043;84;21008;-80
2021/11/21 10:21:51;;;;;;;21.95;13.83;;;;;;;7.59;76.96;97520.91;1654426;87;21104;-80
2021/11/21 10:24:28;;;;;;;19.20;12.23;;;;;;;7.69;75.52;97523.31;1654434;87;21021;-80
2021/11/21 10:27:09;;;;;;;17.77;12.03;;;;;;;7.79;78.53;97520.84;1654491;87;21037;-80
2021/11/21 10:29:42;;;;;;;19.98;12.15;;;;;;;7.98;79.62;97512.02;1654377;87;21072;-80
2021/11/21 10:32:16;;;;;;;18.00;11.60;;;;;;;8.13;74.31;97509.39;1675710;84;20949;-80
2021/11/21 10:35:00;;;;;;;16.65;11.43;;;;;;;8.18;77.66;97505.31;1695224;84;20983;-80
2021/11/21 10:37:37;;;;;;;16.95;11.75;;;;;;;8.26;74.32;97507.74;1692707;83;22024;-80
2021/11/21 10:40:11;;;;;;;15.95;11.15;;;;;;;8.13;72.09;97500.59;1658140;85;21040;-84
2021/11/21 10:42:40;;;;;;;;;;;;;;;8.14;74.58;97497.91;1695126;85;21060;-84
2021/11/21 10:45:10;;;;;;;15.55;10.98;;;;;;;8.34;76.54;97485.08;1695817;83;20153;-83
2021/11/21 10:47:48;;;;;;;17.62;11.90;;;;;;;8.43;75.27;97483.02;1693810;84;20958;-83
2021/11/21 10:50:37;;;;;;;16.25;11.35;;;;;;;8.49;75.70;97474.06;1691265;84;21064;-80
2021/11/21 10:53:09;;;;;;;16.42;10.98;;;;;;;8.61;74.51;97475.51;1682604;84;20999;-82
2021/11/21 10:55:39;;;;;;;18.00;11.35;;;;;;;8.63;74.90;97475.47;1685500;84;21061;-85
2021/11/21 10:58:17;;;;;;;18.27;11.40;;;;;;;8.72;74.73;97477.80;1680440;85;21060;-88
2021/11/21 11:00:56;;;;;;;20.35;12.15;;;;;;;8.76;75.41;97471.52;1679283;84;21067;-83
2021/11/21 11:03:25;;;;;;;17.30;11.43;;;;;;;8.83;72.22;97473.08;1672004;84;21022;-81
2021/11/21 11:05:52;;;;;;;18.12;12.28;;;;;;;8.84;74.63;97472.16;1667404;83;21021;-82
2021/11/21 11:08:29;;;;;;;15.85;11.05;;;;;;;8.89;74.02;97474.64;1670151;85;21024;-83
2021/11/21 11:10:56;;;;;;;15.20;10.28;;;;;;;8.91;73.89;97475.92;1660265;84;21041;-82
2021/11/21 11:13:24;;;;;;;14.47;10.43;;;;;;;8.93;73.20;97467.51;1687568;84;21430;-82
2021/11/21 11:15:54;;;;;;;16.73;10.82;;;;;;;8.95;71.75;97476.23;1684919;84;21018;-83
2021/11/21 11:18:21;;;;;;;14.07;9.60;;;;;;;8.90;72.34;97472.44;1688533;85;21029;-82
2021/11/21 11:20:57;;;;;;;17.02;10.08;;;;;;;8.78;73.00;97467.52;1648396;86;21068;-82
2021/11/21 11:23:23;;;;;;;14.70;10.00;;;;;;;8.72;72.94;97464.59;1668047;85;20963;-82
2021/11/21 11:25:53;;;;;;;13.62;9.90;;;;;;;8.69;73.21;97460.27;1669600;85;21092;-83
2021/11/21 11:28:36;;;;;;;14.25;9.58;;;;;;;8.55;70.53;97454.09;1671463;85;21065;-82
2021/11/21 11:31:22;;;;;;;13.83;10.00;;;;;;;8.54;73.27;97453.70;1670452;85;21386;-83
2021/11/21 11:33:53;;;;;;;13.98;9.63;;;;;;;8.54;72.97;97454.14;1671752;84;20962;-83